Time;durP1;ratioP1;P1;durP2;ratioP2;P2;SDS_P1;SDS_P2;PMS_P1;PMS_P2;Temp;Humidity;BMP_temperature;BMP_pressure;BME280_temperature;BME280_humidity;BME280_pressure;Samples;Min_cycle;Max_cycle;Signal;HPM_P1;HPM_P2
2022/08/03 00:01:17;;;;;;;13.07;4.20;;;;;;;20.51;74.94;101446.97;5009988;28;20029;-77
2022/08/03 00:03:43;;;;;;;10.13;3.97;;;;;;;20.64;74.27;101452.50;5000963;28;20037;-77
2022/08/03 00:06:08;;;;;;;11.32;4.32;;;;;;;20.51;74.87;101452.25;5003004;28;20048;-77
2022/08/03 00:08:34;;;;;;;10.45;4.25;;;;;;;20.65;74.23;101448.88;5003879;28;20049;-76
2022/08/03 00:10:59;;;;;;;11.45;4.20;;;;;;;20.54;75.07;101451.91;4996597;28;20471;-77
2022/08/03 00:13:25;;;;;;;10.60;4.45;;;;;;;20.58;74.78;101447.91;4992393;28;20101;-77
2022/08/03 00:15:50;;;;;;;12.30;4.40;;;;;;;20.45;75.48;101452.91;5002654;28;20108;-77
2022/08/03 00:18:16;;;;;;;12.35;4.20;;;;;;;20.35;75.65;101447.03;4996295;28;20026;-76
2022/08/03 00:20:41;;;;;;;11.15;4.18;;;;;;;20.58;74.29;101453.19;5005017;28;20021;-77
2022/08/03 00:23:07;;;;;;;13.32;4.38;;;;;;;20.47;75.34;101450.94;5001628;28;20029;-77
2022/08/03 00:25:34;;;;;;;8.85;4.25;;;;;;;20.40;75.13;101444.72;5006876;28;20697;-76
2022/08/03 00:28:00;;;;;;;12.23;4.33;;;;;;;20.39;74.94;101437.81;5006744;28;20029;-77
2022/08/03 00:30:26;;;;;;;9.18;3.88;;;;;;;20.55;74.17;101443.00;5005942;28;20569;-77
2022/08/03 00:32:51;;;;;;;10.23;4.03;;;;;;;20.30;75.77;101438.84;4994671;28;20109;-77
2022/08/03 00:35:17;;;;;;;10.57;4.18;;;;;;;20.34;75.60;101440.13;5007333;28;20045;-76
2022/08/03 00:37:42;;;;;;;11.10;4.20;;;;;;;20.30;75.49;101437.06;5002185;28;20782;-76
2022/08/03 00:40:12;;;;;;;8.82;3.90;;;;;;;20.41;75.10;101441.06;4986070;28;20030;-76
2022/08/03 00:42:52;;;;;;;10.27;4.18;;;;;;;20.42;74.95;101437.47;4995783;28;20378;-77
2022/08/03 00:45:19;;;;;;;12.00;4.43;;;;;;;20.47;74.64;101440.41;4992684;28;20029;-76
2022/08/03 00:47:44;;;;;;;10.65;4.53;;;;;;;20.58;73.62;101436.53;4992048;28;20538;-77
2022/08/03 00:50:10;;;;;;;9.95;4.13;;;;;;;20.51;73.84;101425.88;5004800;28;20129;-76
2022/08/03 00:52:35;;;;;;;10.02;4.10;;;;;;;20.56;73.78;101434.09;5007024;28;20029;-77
2022/08/03 00:55:03;;;;;;;8.57;4.28;;;;;;;20.46;73.85;101416.88;5008949;28;20370;-77
2022/08/03 00:57:29;;;;;;;10.87;4.13;;;;;;;20.47;74.21;101427.22;4999448;28;20099;-76
2022/08/03 00:59:55;;;;;;;11.13;4.32;;;;;;;20.46;74.21;101420.31;4989220;28;20033;-77
2022/08/03 01:02:20;;;;;;;11.52;4.50;;;;;;;20.52;74.60;101427.53;5007766;28;20021;-77
2022/08/03 01:04:45;;;;;;;10.65;4.20;;;;;;;20.46;74.15;101422.13;4995790;28;20521;-77
2022/08/03 01:07:41;;;;;;;11.52;4.80;;;;;;;20.46;74.27;101422.13;5009325;28;20054;-77
2022/08/03 01:10:25;;;;;;;10.63;4.45;;;;;;;20.36;75.19;101427.63;5007468;28;20025;-76
2022/08/03 01:12:56;;;;;;;11.07;4.60;;;;;;;20.34;74.95;101419.06;5008291;28;20056;-77
2022/08/03 01:15:41;;;;;;;13.45;4.68;;;;;;;20.37;74.67;101408.19;5007611;28;20118;-77
2022/08/03 01:18:44;;;;;;;11.77;4.78;;;;;;;20.37;74.30;101419.53;4997221;28;20034;-77
2022/08/03 01:21:16;;;;;;;9.95;4.72;;;;;;;20.27;74.78;101412.84;4989113;28;20185;-77
2022/08/03 01:24:13;;;;;;;10.38;4.60;;;;;;;20.40;74.02;101426.25;4999261;28;20041;-76
2022/08/03 01:27:01;;;;;;;9.90;4.72;;;;;;;20.34;74.51;101419.06;5006186;28;20266;-77
2022/08/03 01:29:52;;;;;;;11.27;5.00;;;;;;;20.23;74.62;101415.00;5007918;28;20087;-76
2022/08/03 01:32:24;;;;;;;10.38;4.93;;;;;;;20.23;75.05;101417.63;4993254;28;20045;-76
2022/08/03 01:35:03;;;;;;;9.85;4.50;;;;;;;20.26;74.70;101422.56;4998582;28;20022;-77
2022/08/03 01:37:37;;;;;;;12.07;4.95;;;;;;;20.25;75.20;101420.13;5003491;28;20080;-76
2022/08/03 01:40:05;;;;;;;10.95;5.35;;;;;;;20.23;74.89;101407.09;4989535;28;20018;-76
2022/08/03 01:42:32;;;;;;;10.52;4.93;;;;;;;20.19;75.45;101412.91;5005296;28;20096;-76
2022/08/03 01:44:58;;;;;;;10.73;4.88;;;;;;;20.08;75.57;101393.88;5006024;28;20057;-76
2022/08/03 01:47:27;;;;;;;8.82;4.95;;;;;;;20.09;75.12;101406.03;5016370;28;20026;-76
2022/08/03 01:49:55;;;;;;;13.25;5.60;;;;;;;20.06;75.18;101406.38;5006023;28;20036;-76
2022/08/03 01:52:21;;;;;;;11.75;5.03;;;;;;;20.03;75.46;101403.28;5007721;28;20048;-76
2022/08/03 01:54:49;;;;;;;11.90;5.03;;;;;;;19.98;75.75;101398.53;5008292;28;20029;-76
2022/08/03 01:57:15;;;;;;;;;;;;;;;20.26;73.96;101400.69;5007238;28;20124;-76
2022/08/03 01:59:43;;;;;;;13.52;5.38;;;;;;;19.88;76.14;101395.28;5011449;28;20314;-76
2022/08/03 02:02:12;;;;;;;13.38;6.20;;;;;;;19.90;76.65;101401.22;4995138;28;20030;-76
2022/08/03 02:04:40;;;;;;;14.10;5.93;;;;;;;19.91;75.99;101405.50;5015741;28;20116;-77
2022/08/03 02:07:06;;;;;;;15.30;6.40;;;;;;;19.93;76.04;101406.13;4994135;28;20048;-76
2022/08/03 02:09:35;;;;;;;10.30;5.57;;;;;;;19.86;76.52;101399.91;5013647;28;20127;-77
2022/08/03 02:12:01;;;;;;;12.10;5.72;;;;;;;19.89;76.03;101394.28;5008130;28;20033;-77
2022/08/03 02:14:27;;;;;;;11.23;5.78;;;;;;;19.88;75.69;101393.47;5016712;28;20048;-76
2022/08/03 02:16:54;;;;;;;12.38;5.72;;;;;;;19.87;76.35;101394.47;5011416;28;20026;-76
2022/08/03 02:19:21;;;;;;;12.65;5.68;;;;;;;19.97;75.96;101396.09;4996141;28;20030;-76
2022/08/03 02:21:49;;;;;;;11.88;5.38;;;;;;;19.77;77.35;101393.03;5022041;28;20037;-76
2022/08/03 02:24:15;;;;;;;12.30;5.85;;;;;;;19.84;77.01;101391.34;4996838;28;20026;-76
2022/08/03 02:26:42;;;;;;;13.65;6.10;;;;;;;19.68;77.90;101391.44;5013379;28;20033;-76
2022/08/03 02:29:17;;;;;;;10.68;5.80;;;;;;;19.67;78.35;101400.31;5012136;28;20117;-76
2022/08/03 02:31:45;;;;;;;12.48;6.00;;;;;;;19.68;78.28;101396.72;5007607;28;20030;-77
2022/08/03 02:34:13;;;;;;;11.55;5.90;;;;;;;19.65;77.97;101397.03;5006556;28;20030;-76
2022/08/03 02:36:41;;;;;;;9.88;6.07;;;;;;;19.69;77.95;101393.09;5006999;28;20021;-76
2022/08/03 02:39:10;;;;;;;13.75;6.28;;;;;;;19.66;78.37;101385.50;5011918;28;20054;-76
2022/08/03 02:41:45;;;;;;;13.85;5.88;;;;;;;19.30;79.16;101372.78;4997395;28;20034;-76
2022/08/03 02:44:12;;;;;;;14.07;6.97;;;;;;;19.36;79.13;101387.91;5013150;28;20021;-76
2022/08/03 02:46:41;;;;;;;14.05;6.63;;;;;;;19.20;79.93;101393.19;5005805;28;20037;-76
2022/08/03 02:49:09;;;;;;;13.93;6.03;;;;;;;19.27;79.30;101388.94;5013799;28;20037;-76
2022/08/03 02:51:37;;;;;;;11.98;6.30;;;;;;;19.23;79.39;101384.97;4992495;28;20034;-77
2022/08/03 02:54:05;;;;;;;11.75;5.82;;;;;;;19.25;79.67;101390.88;5004002;28;20021;-76
2022/08/03 02:56:32;;;;;;;14.18;6.43;;;;;;;19.25;80.26;101385.63;4998617;28;20068;-76
2022/08/03 02:58:59;;;;;;;11.57;6.27;;;;;;;19.09;80.71;101378.59;5015865;28;20049;-76
2022/08/03 03:01:27;;;;;;;15.32;6.55;;;;;;;19.13;80.91;101381.72;4988077;28;20413;-76
2022/08/03 03:03:54;;;;;;;;;;;;;;;19.46;78.09;101378.00;4989191;28;20029;-76
2022/08/03 03:06:20;;;;;;;13.00;6.47;;;;;;;19.23;80.42;101382.34;5002522;28;19918;-76
2022/08/03 03:08:46;;;;;;;13.40;6.78;;;;;;;19.12;80.73;101374.81;5002791;28;20084;-76
2022/08/03 03:11:13;;;;;;;12.38;6.57;;;;;;;19.12;81.09;101377.44;4998066;28;20040;-76
2022/08/03 03:13:43;;;;;;;12.80;6.47;;;;;;;19.17;80.88;101380.41;5004439;28;20026;-76
2022/08/03 03:16:12;;;;;;;13.95;6.80;;;;;;;19.29;80.44;101385.13;5000841;28;20026;-76
2022/08/03 03:18:39;;;;;;;13.23;6.85;;;;;;;19.15;81.17;101371.84;5005881;28;20057;-76
2022/08/03 03:21:07;;;;;;;14.60;6.72;;;;;;;19.24;81.15;101381.34;5005128;28;20124;-76
2022/08/03 03:23:37;;;;;;;11.13;6.65;;;;;;;19.19;81.68;101378.41;5012376;28;20037;-77
2022/08/03 03:26:03;;;;;;;13.85;6.57;;;;;;;19.17;81.77;101372.50;5008162;28;20045;-76
2022/08/03 03:28:30;;;;;;;15.75;6.72;;;;;;;19.20;81.63;101374.78;5004620;28;20117;-77
2022/08/03 03:30:56;;;;;;;13.25;6.55;;;;;;;19.12;82.11;101369.56;5010600;28;20040;-76
2022/08/03 03:33:22;;;;;;;11.32;6.32;;;;;;;19.25;81.31;101369.84;5005262;28;20014;-76
2022/08/03 03:35:48;;;;;;;11.90;6.43;;;;;;;19.30;81.05;101375.41;5019883;28;20408;-76
2022/08/03 03:38:13;;;;;;;11.60;6.40;;;;;;;19.05;82.50;101366.78;5014272;28;20040;-76
2022/08/03 03:40:39;;;;;;;11.93;6.28;;;;;;;19.18;81.72;101368.88;5005599;28;20433;-76
2022/08/03 03:43:09;;;;;;;13.05;6.30;;;;;;;19.19;81.77;101370.53;5005309;28;20026;-76
2022/08/03 03:45:35;;;;;;;13.55;6.72;;;;;;;19.09;82.44;101371.50;5002557;28;20024;-76
2022/08/03 03:48:03;;;;;;;14.07;6.78;;;;;;;19.22;81.87;101380.72;4998905;28;20042;-76
2022/08/03 03:50:30;;;;;;;12.65;6.57;;;;;;;19.10;82.23;101367.91;5001183;28;20464;-76
2022/08/03 03:52:55;;;;;;;13.13;6.70;;;;;;;19.07;82.84;101370.88;5006242;28;20409;-76
2022/08/03 03:55:21;;;;;;;10.95;6.45;;;;;;;19.08;82.72;101364.63;4995118;28;20541;-76
2022/08/03 03:57:46;;;;;;;13.85;7.22;;;;;;;19.07;82.98;101377.94;5003239;28;20032;-76
2022/08/03 04:00:15;;;;;;;15.18;6.45;;;;;;;19.12;82.33;101378.25;5003600;28;20030;-76
2022/08/03 04:02:41;;;;;;;13.38;6.57;;;;;;;19.18;81.83;101384.66;5000791;28;20033;-76
2022/08/03 04:10:59;;;;;;;14.82;6.75;;;;;;;19.24;81.77;101378.72;5000525;28;20036;-75
2022/08/03 04:13:33;;;;;;;12.27;6.22;;;;;;;19.18;81.69;101368.88;4991125;28;20045;-76
2022/08/03 04:15:59;;;;;;;12.73;6.60;;;;;;;19.29;80.96;101374.59;4999986;28;20049;-76
2022/08/03 04:18:29;;;;;;;14.13;6.80;;;;;;;19.21;81.64;101373.78;4995249;28;20061;-75
2022/08/03 04:20:57;;;;;;;11.88;5.93;;;;;;;19.25;81.00;101375.09;5002616;28;20034;-75
2022/08/03 04:23:26;;;;;;;11.95;6.03;;;;;;;19.12;81.89;101374.81;4999113;28;20026;-75
2022/08/03 04:25:55;;;;;;;13.32;5.88;;;;;;;19.24;80.80;101378.72;5000502;28;20529;-76
2022/08/03 04:28:22;;;;;;;11.63;5.50;;;;;;;19.24;80.77;101373.47;5004528;28;20156;-75
2022/08/03 04:30:49;;;;;;;11.93;5.97;;;;;;;19.25;80.70;101369.84;5002259;28;20026;-76
2022/08/03 04:33:17;;;;;;;13.80;5.50;;;;;;;19.27;80.44;101373.97;5007096;28;20030;-76
2022/08/03 04:35:45;;;;;;;11.80;5.35;;;;;;;19.28;80.76;101374.78;4997194;28;20478;-75
2022/08/03 04:38:13;;;;;;;12.07;5.55;;;;;;;19.26;80.17;101371.47;5001824;28;20025;-76
2022/08/03 04:40:41;;;;;;;12.30;5.88;;;;;;;19.29;79.68;101366.72;5019826;28;20384;-75
2022/08/03 04:43:08;;;;;;;13.48;6.03;;;;;;;19.33;79.81;101375.09;5028238;28;20029;-75
2022/08/03 04:45:34;;;;;;;12.57;5.53;;;;;;;19.26;80.01;101366.22;5024402;28;20112;-75
2022/08/03 04:48:01;;;;;;;12.98;5.70;;;;;;;19.27;79.90;101375.78;5009134;28;20026;-75
2022/08/03 04:50:27;;;;;;;14.25;5.70;;;;;;;19.19;80.95;101386.28;5006443;28;20038;-75
2022/08/03 04:52:52;;;;;;;12.30;6.05;;;;;;;19.09;81.73;101386.47;5020020;28;20077;-75
2022/08/03 04:55:44;;;;;;;14.65;5.72;;;;;;;19.27;80.94;101404.72;5006456;28;20026;-75
2022/08/03 04:58:09;;;;;;;10.20;5.38;;;;;;;19.12;81.56;101395.84;5005890;28;20451;-75
2022/08/03 05:00:35;;;;;;;11.38;5.30;;;;;;;19.28;80.37;101395.81;5004477;28;20113;-75
2022/08/03 05:03:00;;;;;;;13.63;5.47;;;;;;;19.19;80.41;101391.56;5007313;28;20053;-75
2022/08/03 05:05:26;;;;;;;11.88;5.97;;;;;;;19.26;80.55;101403.03;5015946;28;20014;-74
2022/08/03 05:07:51;;;;;;;11.70;5.15;;;;;;;19.16;80.65;101402.44;5005325;28;20041;-76
2022/08/03 05:10:17;;;;;;;11.20;5.20;;;;;;;19.19;81.03;101407.34;5005286;28;20576;-75
2022/08/03 05:12:47;;;;;;;9.80;5.32;;;;;;;19.15;81.24;101403.38;5005617;28;20038;-76
2022/08/03 05:15:12;;;;;;;12.32;5.63;;;;;;;19.08;81.71;101404.06;5011657;28;20102;-75
2022/08/03 05:17:38;;;;;;;10.35;5.32;;;;;;;19.10;81.51;101404.72;5005469;28;20061;-76
2022/08/03 05:20:04;;;;;;;10.77;4.80;;;;;;;19.17;81.01;101409.31;4995291;28;20474;-76
2022/08/03 05:22:29;;;;;;;14.32;5.60;;;;;;;19.03;82.06;101416.88;4996505;28;20018;-75
2022/08/03 05:24:54;;;;;;;12.63;5.50;;;;;;;19.06;82.22;101419.19;4992123;28;20026;-76
2022/08/03 05:27:20;;;;;;;12.55;5.60;;;;;;;19.19;81.46;101423.09;4999813;28;20465;-76
2022/08/03 05:29:47;;;;;;;12.10;5.70;;;;;;;19.15;82.01;101413.91;5001686;28;20024;-76
2022/08/03 05:32:12;;;;;;;12.48;5.93;;;;;;;19.17;82.47;101414.56;5001644;28;20055;-76
2022/08/03 05:34:37;;;;;;;12.43;5.88;;;;;;;19.17;82.00;101419.84;5005768;28;20282;-74
2022/08/03 05:37:03;;;;;;;11.88;6.38;;;;;;;19.20;81.50;101409.78;5021110;28;20477;-76
2022/08/03 05:39:28;;;;;;;10.65;5.95;;;;;;;19.29;80.97;101402.72;5002773;28;20041;-75
2022/08/03 05:41:54;;;;;;;12.70;5.95;;;;;;;19.28;82.01;101416.84;4999343;28;20101;-75
2022/08/03 05:44:19;;;;;;;12.65;6.20;;;;;;;19.32;81.93;101418.16;5006112;28;20026;-75
2022/08/03 05:46:44;;;;;;;12.02;6.15;;;;;;;19.33;81.26;101411.91;5003244;28;20061;-75
2022/08/03 05:49:10;;;;;;;16.33;6.03;;;;;;;19.43;80.71;101415.16;4998548;28;20481;-76
2022/08/03 05:51:36;;;;;;;13.93;6.68;;;;;;;19.39;81.41;101424.41;5015577;28;20112;-76
2022/08/03 05:54:01;;;;;;;12.25;6.50;;;;;;;19.43;81.15;101420.41;5008275;28;20025;-77
2022/08/03 05:56:26;;;;;;;13.73;6.65;;;;;;;19.43;81.64;101419.59;5003846;28;20022;-76
2022/08/03 05:58:52;;;;;;;14.70;5.85;;;;;;;19.56;81.09;101420.72;5009273;28;20097;-75
2022/08/03 06:01:20;;;;;;;14.45;6.82;;;;;;;19.58;80.96;101418.78;5012602;28;20029;-76
2022/08/03 06:03:46;;;;;;;11.65;6.18;;;;;;;19.74;80.12;101424.97;5018235;28;20123;-76
2022/08/03 06:06:12;;;;;;;13.98;6.45;;;;;;;19.80;79.66;101417.22;5007043;28;20026;-76
2022/08/03 06:08:38;;;;;;;11.40;5.80;;;;;;;19.86;79.82;101415.72;5005142;28;20083;-76
2022/08/03 06:11:03;;;;;;;13.15;5.70;;;;;;;19.92;79.63;101409.75;5006847;28;20071;-76
2022/08/03 06:13:29;;;;;;;12.60;5.53;;;;;;;20.05;78.59;101415.28;5004019;28;20529;-76
2022/08/03 06:15:54;;;;;;;12.05;5.53;;;;;;;20.09;79.01;101408.69;5006735;28;20361;-77
2022/08/03 06:18:20;;;;;;;13.35;5.90;;;;;;;20.13;77.94;101417.88;5007523;28;20026;-77
2022/08/03 06:20:45;;;;;;;12.85;5.60;;;;;;;20.17;78.58;101424.41;4999633;28;20044;-77
2022/08/03 06:23:10;;;;;;;12.93;5.35;;;;;;;20.11;78.66;101430.38;4989213;28;20546;-76
2022/08/03 06:25:36;;;;;;;13.85;5.00;;;;;;;20.28;77.78;101425.84;4999989;28;20034;-76
2022/08/03 06:28:02;;;;;;;12.88;4.68;;;;;;;20.38;77.12;101430.91;5012649;28;20013;-76
2022/08/03 06:30:28;;;;;;;9.65;4.60;;;;;;;20.42;77.08;101429.56;4983888;28;20044;-77
2022/08/03 06:32:53;;;;;;;13.25;4.80;;;;;;;20.46;76.98;101424.78;5019543;28;20017;-76
2022/08/03 06:35:19;;;;;;;14.73;4.60;;;;;;;20.54;76.17;101436.09;5009354;28;20041;-77
2022/08/03 06:37:47;;;;;;;12.60;4.35;;;;;;;20.53;76.34;101423.91;4988981;28;20021;-77
2022/08/03 06:40:14;;;;;;;12.30;4.45;;;;;;;20.60;76.60;101426.66;5003498;28;20459;-77
2022/08/03 06:42:40;;;;;;;12.63;4.07;;;;;;;20.63;76.64;101437.66;5010446;28;20385;-77
2022/08/03 06:45:07;;;;;;;13.10;4.70;;;;;;;20.64;76.03;101426.16;5003785;28;20026;-76
2022/08/03 06:47:34;;;;;;;15.30;4.32;;;;;;;20.68;75.78;101427.41;5007722;28;20044;-77
2022/08/03 06:49:59;;;;;;;15.48;4.95;;;;;;;20.75;75.38;101424.06;5000786;28;20030;-76
2022/08/03 06:52:25;;;;;;;15.63;4.13;;;;;;;20.85;74.65;101432.56;5005028;28;20403;-76
2022/08/03 06:54:50;;;;;;;11.75;3.92;;;;;;;20.89;74.72;101434.66;5001135;28;20125;-76
2022/08/03 06:57:17;;;;;;;11.63;3.90;;;;;;;20.86;74.75;101428.91;4999223;28;20026;-76
2022/08/03 06:59:43;;;;;;;14.80;4.75;;;;;;;20.96;74.66;101440.03;5005105;28;20101;-77
2022/08/03 07:02:09;;;;;;;15.52;4.53;;;;;;;21.02;74.03;101438.50;4999758;28;20104;-76
2022/08/03 07:04:34;;;;;;;11.43;3.80;;;;;;;21.09;73.51;101440.25;5005241;28;20524;-76
2022/08/03 07:07:00;;;;;;;11.88;4.13;;;;;;;21.13;74.30;101430.97;5001519;28;20053;-77
2022/08/03 07:09:25;;;;;;;14.55;4.45;;;;;;;21.26;73.57;101435.63;4987209;28;20026;-76
2022/08/03 07:11:51;;;;;;;14.30;4.55;;;;;;;21.31;73.43;101440.41;4998563;28;20052;-77
2022/08/03 07:14:17;;;;;;;14.25;4.45;;;;;;;21.20;73.23;101447.72;4987910;28;20113;-76
2022/08/03 07:16:42;;;;;;;11.68;4.10;;;;;;;21.29;73.40;101445.03;5012272;28;20103;-77
2022/08/03 07:19:07;;;;;;;16.35;4.55;;;;;;;21.35;73.07;101449.59;4996582;28;20472;-77
2022/08/03 07:21:33;;;;;;;13.40;4.80;;;;;;;21.40;72.98;101447.25;5006476;28;20034;-77
2022/08/03 07:23:58;;;;;;;15.07;4.55;;;;;;;21.44;73.00;101448.50;5000274;28;20455;-76
2022/08/03 07:26:23;;;;;;;12.13;4.20;;;;;;;21.57;72.94;101443.44;4993109;28;20034;-77
2022/08/03 07:28:49;;;;;;;12.30;4.30;;;;;;;21.71;71.61;101460.25;5003771;28;20017;-78
2022/08/03 07:31:14;;;;;;;13.60;4.15;;;;;;;21.83;72.44;101452.69;5006943;28;20025;-78
2022/08/03 07:33:39;;;;;;;14.98;4.32;;;;;;;21.83;71.84;101457.97;5005256;28;20033;-77
2022/08/03 07:36:05;;;;;;;15.02;4.60;;;;;;;21.84;71.60;101454.31;5000651;28;20036;-78
2022/08/03 07:38:30;;;;;;;12.27;4.13;;;;;;;22.05;70.57;101451.75;4990929;28;20037;-78
2022/08/03 07:40:55;;;;;;;15.55;4.15;;;;;;;22.09;70.32;101455.66;4985933;28;20489;-77
2022/08/03 07:43:21;;;;;;;14.35;4.10;;;;;;;22.21;70.31;101451.56;4992168;28;20356;-77
2022/08/03 07:45:47;;;;;;;14.02;4.32;;;;;;;22.33;70.89;101453.72;5013128;28;20028;-77
2022/08/03 07:48:12;;;;;;;13.57;4.00;;;;;;;22.43;69.01;101444.47;5011245;28;20032;-77
2022/08/03 07:50:37;;;;;;;13.63;3.92;;;;;;;22.45;69.83;101447.75;4998883;28;20092;-77
2022/08/03 07:53:03;;;;;;;13.85;4.13;;;;;;;22.42;69.11;101452.56;5005143;28;20057;-77
2022/08/03 07:55:29;;;;;;;13.65;3.72;;;;;;;22.58;69.33;101447.06;4998349;28;20105;-77
2022/08/03 07:58:05;;;;;;;13.48;4.20;;;;;;;22.63;68.70;101460.53;4991704;28;20030;-77
2022/08/03 08:00:31;;;;;;;14.77;4.05;;;;;;;22.75;68.04;101452.91;5006944;28;20033;-77
2022/08/03 08:02:56;;;;;;;13.93;3.30;;;;;;;22.76;67.72;101450.06;5001387;28;20033;-77
2022/08/03 08:05:22;;;;;;;12.63;3.80;;;;;;;22.76;67.59;101455.34;5006075;28;20065;-77
2022/08/03 08:07:47;;;;;;;12.10;3.30;;;;;;;22.89;67.37;101460.00;5012771;28;20490;-77
2022/08/03 08:10:13;;;;;;;10.93;3.65;;;;;;;22.89;67.50;101456.53;4997944;28;20025;-77
2022/08/03 08:12:39;;;;;;;12.65;3.80;;;;;;;23.00;66.33;101456.00;4987583;28;20060;-78
2022/08/03 08:15:05;;;;;;;16.42;3.95;;;;;;;23.00;66.61;101446.25;5003813;28;20481;-77
2022/08/03 08:17:40;;;;;;;13.45;4.43;;;;;;;23.02;67.08;101451.34;4991389;28;20076;-77
2022/08/03 08:20:06;;;;;;;12.75;3.85;;;;;;;23.09;66.53;101451.38;4996689;28;20049;-77
2022/08/03 08:22:31;;;;;;;14.23;3.97;;;;;;;23.18;66.52;101458.19;5003475;28;20030;-77
2022/08/03 08:24:59;;;;;;;10.95;3.47;;;;;;;23.21;66.01;101447.19;5005778;28;20478;-77
2022/08/03 08:27:25;;;;;;;14.15;3.55;;;;;;;23.42;65.43;101454.25;5001449;28;20058;-77
2022/08/03 08:29:50;;;;;;;12.15;3.25;;;;;;;23.58;64.74;101443.34;5005621;28;20113;-77
2022/08/03 08:32:15;;;;;;;14.75;4.07;;;;;;;23.65;64.78;101460.13;5004508;28;20038;-77
2022/08/03 08:34:41;;;;;;;16.67;3.63;;;;;;;23.77;65.12;101445.31;4996725;28;20033;-78
2022/08/03 08:37:06;;;;;;;13.73;3.60;;;;;;;23.88;64.65;101456.38;5000715;28;20474;-77
2022/08/03 08:39:32;;;;;;;14.80;3.15;;;;;;;24.05;62.98;101455.00;4999011;28;20037;-78
2022/08/03 08:41:57;;;;;;;14.07;3.38;;;;;;;24.11;62.68;101455.03;5008736;28;20417;-77
2022/08/03 08:44:22;;;;;;;21.98;4.28;;;;;;;24.29;62.42;101456.28;4994258;28;20039;-77
2022/08/03 08:46:52;;;;;;;17.90;3.75;;;;;;;24.39;62.42;101445.34;4991863;28;20030;-77
2022/08/03 08:49:21;;;;;;;15.15;3.40;;;;;;;24.36;61.76;101452.66;4995181;28;20030;-77
2022/08/03 08:51:49;;;;;;;12.93;3.38;;;;;;;24.59;61.13;101448.81;4978708;28;20471;-77
2022/08/03 08:54:16;;;;;;;;;;;;;;;24.74;63.44;101452.13;4994172;28;20026;-77
2022/08/03 08:56:43;;;;;;;17.20;4.25;;;;;;;24.73;59.96;101447.84;4998684;28;19913;-77
2022/08/03 08:59:09;;;;;;;16.70;3.30;;;;;;;24.83;58.97;101437.63;5001145;28;20402;-77
2022/08/03 09:01:34;;;;;;;11.55;3.00;;;;;;;24.95;58.44;101452.94;4998409;28;20489;-78
2022/08/03 09:04:00;;;;;;;16.17;3.35;;;;;;;25.04;57.72;101443.72;4995227;28;20451;-78
2022/08/03 09:06:25;;;;;;;12.13;3.13;;;;;;;25.10;57.91;101442.94;4997295;28;20066;-77
2022/08/03 09:08:51;;;;;;;16.35;2.95;;;;;;;25.12;58.53;101452.34;5019314;28;20510;-79
2022/08/03 09:11:20;;;;;;;17.17;3.50;;;;;;;25.31;58.60;101456.00;5019661;28;20116;-79
2022/08/03 09:13:46;;;;;;;12.90;3.25;;;;;;;25.27;58.39;101449.44;5021315;28;20447;-77
2022/08/03 09:16:16;;;;;;;13.57;3.00;;;;;;;25.35;57.91;101451.09;5019207;28;20026;-77
2022/08/03 09:18:44;;;;;;;14.10;3.20;;;;;;;25.51;57.32;101452.47;5015951;28;20491;-76
2022/08/03 09:21:23;;;;;;;13.65;3.28;;;;;;;25.51;57.70;101457.78;5017093;28;20477;-77
2022/08/03 09:23:54;;;;;;;13.80;2.85;;;;;;;25.70;58.63;101448.94;5001925;28;20108;-77
2022/08/03 09:26:28;;;;;;;12.63;3.03;;;;;;;25.68;58.60;101443.00;5017871;28;20025;-77
2022/08/03 09:29:05;;;;;;;16.13;3.33;;;;;;;25.73;57.38;101459.13;5017767;28;20038;-77
2022/08/03 09:31:32;;;;;;;12.05;3.17;;;;;;;25.77;56.46;101459.56;5018106;28;20025;-76
2022/08/03 09:34:03;;;;;;;11.23;2.80;;;;;;;25.80;56.54;101444.00;5018555;28;20026;-76
2022/08/03 09:36:41;;;;;;;16.67;3.50;;;;;;;25.99;55.97;101441.50;5021337;28;20075;-76
2022/08/03 09:39:12;;;;;;;13.20;3.25;;;;;;;25.94;54.40;101456.22;5015479;28;20029;-77
2022/08/03 09:41:39;;;;;;;15.98;3.45;;;;;;;25.83;55.01;101453.41;5017967;28;20033;-77
2022/08/03 09:44:05;;;;;;;12.00;3.20;;;;;;;25.94;55.18;101456.22;5007194;28;20037;-77
2022/08/03 09:46:32;;;;;;;18.05;3.30;;;;;;;26.06;54.49;101447.59;4998499;28;20032;-76
2022/08/03 09:49:17;;;;;;;11.07;2.90;;;;;;;26.22;56.13;101460.41;5024284;28;20052;-76
2022/08/03 09:51:44;;;;;;;16.58;3.20;;;;;;;26.41;53.00;101448.84;5014692;28;20397;-77
2022/08/03 09:54:09;;;;;;;15.77;3.17;;;;;;;26.43;53.60;101449.44;5019024;28;20034;-77
2022/08/03 09:56:44;;;;;;;12.82;2.97;;;;;;;26.45;53.75;101446.56;5019325;28;20079;-77
2022/08/03 09:59:11;;;;;;;13.10;2.88;;;;;;;26.41;53.17;101451.50;5025420;28;20038;-77
2022/08/03 10:01:40;;;;;;;13.65;3.38;;;;;;;26.43;53.50;101449.44;5014475;28;20064;-77
2022/08/03 10:04:11;;;;;;;14.60;3.50;;;;;;;26.52;52.50;101462.47;5026498;28;20155;-77
2022/08/03 10:06:37;;;;;;;15.93;3.38;;;;;;;26.81;51.25;101453.88;5023857;28;20033;-77
2022/08/03 10:09:05;;;;;;;13.98;3.22;;;;;;;27.05;50.73;101454.88;5007046;28;20489;-77
2022/08/03 10:11:31;;;;;;;12.77;2.80;;;;;;;27.08;51.10;101457.16;5005091;28;20053;-77
2022/08/03 10:13:57;;;;;;;17.13;3.05;;;;;;;27.24;49.18;101450.41;5007420;28;20025;-76
2022/08/03 10:16:22;;;;;;;12.65;2.80;;;;;;;27.22;49.34;101457.81;4993569;28;20435;-77
2022/08/03 10:18:48;;;;;;;13.10;3.28;;;;;;;27.37;49.01;101452.97;5003084;28;20033;-76
2022/08/03 10:21:18;;;;;;;15.73;3.08;;;;;;;27.33;48.70;101454.44;5001671;28;20026;-77
2022/08/03 10:23:45;;;;;;;11.32;2.75;;;;;;;27.27;48.99;101460.66;5006320;28;20029;-77
2022/08/03 10:26:15;;;;;;;10.60;2.93;;;;;;;27.30;49.75;101460.22;4989455;28;20041;-76
2022/08/03 10:28:47;;;;;;;12.85;2.88;;;;;;;27.41;50.08;101456.81;4988437;28;20041;-77
2022/08/03 10:31:15;;;;;;;9.80;2.65;;;;;;;27.51;49.48;101451.78;5003615;28;20029;-77
2022/08/03 10:33:42;;;;;;;10.90;2.63;;;;;;;27.65;49.05;101456.97;5016041;28;20282;-77
2022/08/03 10:36:09;;;;;;;11.90;3.03;;;;;;;27.84;49.38;101450.59;5016226;28;20109;-76
2022/08/03 10:38:39;;;;;;;10.77;2.80;;;;;;;27.83;47.76;101443.66;4993211;28;20034;-78
2022/08/03 10:41:07;;;;;;;15.60;3.10;;;;;;;27.96;47.25;101443.47;5002375;28;20029;-78
2022/08/03 10:43:41;;;;;;;11.68;2.95;;;;;;;28.09;48.19;101444.34;4982160;28;20491;-78
2022/08/03 10:46:07;;;;;;;13.52;2.83;;;;;;;28.02;46.39;101431.91;4996289;28;20080;-77
2022/08/03 10:48:34;;;;;;;12.32;3.03;;;;;;;28.01;45.32;101424.94;4999599;28;20489;-77
2022/08/03 10:51:00;;;;;;;10.00;2.40;;;;;;;28.29;46.84;101434.19;5007283;28;20034;-76
2022/08/03 10:53:42;;;;;;;12.70;3.08;;;;;;;28.08;47.02;101429.38;4996935;28;20293;-76
2022/08/03 10:59:16;;;;;;;13.38;2.70;;;;;;;28.35;43.89;101425.31;4994438;28;20244;-76
2022/08/03 11:01:50;;;;;;;10.88;2.90;;;;;;;28.56;44.76;101416.78;4999212;28;20030;-76
2022/08/03 11:04:22;;;;;;;13.00;2.72;;;;;;;28.64;44.16;101417.47;4999197;28;20033;-77
2022/08/03 11:07:21;;;;;;;10.98;2.58;;;;;;;28.69;45.21;101412.25;5000467;28;20474;-77
2022/08/03 11:09:52;;;;;;;9.57;2.35;;;;;;;28.72;43.05;101419.78;5001545;28;20030;-77
2022/08/03 11:12:27;;;;;;;11.10;2.30;;;;;;;28.91;42.94;101418.66;4996244;28;20025;-76
2022/08/03 11:14:54;;;;;;;11.88;2.70;;;;;;;29.05;42.33;101408.56;5000296;28;20065;-77
2022/08/03 11:17:20;;;;;;;9.50;2.88;;;;;;;29.02;42.84;101409.84;4990379;28;20085;-77
2022/08/03 11:19:50;;;;;;;12.55;2.50;;;;;;;29.04;43.52;101407.75;4990287;28;20912;-77
2022/08/03 11:22:17;;;;;;;14.50;2.95;;;;;;;29.02;42.47;101409.84;4988123;28;20108;-77
2022/08/03 11:24:42;;;;;;;9.95;2.38;;;;;;;29.06;43.76;101407.50;4981273;28;20054;-76
2022/08/03 11:27:14;;;;;;;9.07;2.40;;;;;;;29.34;43.92;101415.59;4994704;28;20057;-78
2022/08/03 11:29:55;;;;;;;11.82;2.70;;;;;;;29.38;44.67;101418.63;4986250;28;20040;-77
2022/08/03 11:32:39;;;;;;;12.27;2.72;;;;;;;29.39;43.84;101414.91;4988868;28;20104;-76